Time;durP1;ratioP1;P1;durP2;ratioP2;P2;SDS_P1;SDS_P2;PMS_P1;PMS_P2;Temp;Humidity;BMP_temperature;BMP_pressure;BME280_temperature;BME280_humidity;BME280_pressure;Samples;Min_cycle;Max_cycle;Signal;HPM_P1;HPM_P2
2023/06/11 00:01:19;;;;;;;4.60;3.00;;;22.20;99.90;;;;;;5073590;28;20475;-52
2023/06/11 00:03:52;;;;;;;3.00;2.55;;;22.10;99.90;;;;;;5054804;28;20040;-52
2023/06/11 00:06:22;;;;;;;3.90;2.65;;;21.90;99.90;;;;;;5073971;28;20028;-51
2023/06/11 00:08:48;;;;;;;4.10;2.70;;;21.90;99.90;;;;;;5073203;28;20032;-51
2023/06/11 00:11:15;;;;;;;5.38;2.88;;;21.80;99.90;;;;;;5073302;28;20031;-56
2023/06/11 00:13:41;;;;;;;3.83;2.47;;;21.80;99.90;;;;;;5073321;28;20028;-54
2023/06/11 00:16:07;;;;;;;4.32;3.08;;;21.60;99.90;;;;;;5073328;28;20122;-56
2023/06/11 00:18:32;;;;;;;3.20;2.58;;;21.60;99.90;;;;;;5088109;28;20032;-56
2023/06/11 00:20:58;;;;;;;5.45;2.28;;;21.60;99.90;;;;;;5073328;28;20035;-55
2023/06/11 00:23:24;;;;;;;5.10;2.80;;;21.60;99.90;;;;;;5073356;28;20031;-54
2023/06/11 00:25:54;;;;;;;3.22;2.55;;;;;;;;;;5073166;28;20035;-56
2023/06/11 00:28:20;;;;;;;4.45;2.75;;;;;;;;;;5071179;28;20434;-55
2023/06/11 00:30:46;;;;;;;3.22;2.60;;;21.40;99.90;;;;;;5087609;28;20540;-55
2023/06/11 00:33:11;;;;;;;3.67;2.83;;;21.30;99.90;;;;;;5073074;28;20048;-50
2023/06/11 00:35:37;;;;;;;5.68;3.00;;;21.30;99.90;;;;;;5072980;28;20531;-57
2023/06/11 00:38:03;;;;;;;3.83;2.42;;;21.30;99.90;;;;;;5072915;28;20024;-58
2023/06/11 00:40:31;;;;;;;3.55;2.90;;;21.30;99.90;;;;;;5073178;28;20039;-55
2023/06/11 00:42:57;;;;;;;3.75;2.67;;;21.30;99.90;;;;;;5072934;28;20554;-52
2023/06/11 00:45:24;;;;;;;5.90;2.65;;;21.40;99.90;;;;;;5072847;28;20119;-56
2023/06/11 00:47:50;;;;;;;3.88;2.85;;;21.50;99.90;;;;;;5073021;28;20062;-53
2023/06/11 00:50:15;;;;;;;3.20;2.63;;;21.10;99.90;;;;;;5073092;28;20036;-56
2023/06/11 00:52:42;;;;;;;3.97;3.08;;;21.30;99.90;;;;;;5072860;28;20052;-52
2023/06/11 00:55:08;;;;;;;3.15;2.63;;;21.40;99.90;;;;;;5073441;28;20525;-57
2023/06/11 00:57:35;;;;;;;6.43;3.00;;;21.20;99.90;;;;;;5087573;28;20033;-54
2023/06/11 01:00:03;;;;;;;4.80;3.08;;;21.20;99.90;;;;;;5072939;28;20078;-55
2023/06/11 01:02:33;;;;;;;4.18;2.90;;;21.20;99.90;;;;;;5087519;28;20043;-50
2023/06/11 01:05:00;;;;;;;4.20;2.72;;;21.20;99.90;;;;;;5073043;28;20036;-58
2023/06/11 01:07:30;;;;;;;4.32;3.30;;;21.20;99.90;;;;;;5072984;28;20036;-56
2023/06/11 01:09:57;;;;;;;4.57;2.80;;;21.20;99.90;;;;;;5072971;28;20036;-51
2023/06/11 01:12:22;;;;;;;4.97;2.78;;;21.20;99.90;;;;;;5072791;28;20052;-55
2023/06/11 01:14:48;;;;;;;4.55;3.30;;;21.30;99.90;;;;;;5072738;28;20056;-57
2023/06/11 01:17:40;;;;;;;5.25;3.08;;;21.20;99.90;;;;;;5072806;28;20382;-53
2023/06/11 01:20:18;;;;;;;9.73;3.28;;;21.10;99.90;;;;;;5072668;28;20036;-53
2023/06/11 01:23:04;;;;;;;4.25;3.20;;;21.20;99.90;;;;;;5072486;28;20107;-52
2023/06/11 01:25:51;;;;;;;4.50;2.85;;;21.20;99.90;;;;;;5072676;28;20064;-55
2023/06/11 01:28:26;;;;;;;4.22;3.15;;;21.20;99.90;;;;;;5073010;28;20052;-58
2023/06/11 01:30:55;;;;;;;4.55;3.17;;;21.20;99.90;;;;;;5072773;28;20506;-56
2023/06/11 01:33:24;;;;;;;5.13;3.30;;;21.00;99.90;;;;;;5072666;28;20567;-52
2023/06/11 01:35:52;;;;;;;4.90;3.17;;;21.10;99.90;;;;;;5087105;28;20037;-50
2023/06/11 01:38:21;;;;;;;6.10;2.83;;;21.20;99.90;;;;;;5072360;28;20032;-58
2023/06/11 01:40:47;;;;;;;4.75;2.70;;;21.20;99.90;;;;;;5072685;28;20029;-58
2023/06/11 01:43:13;;;;;;;5.13;3.15;;;21.10;99.90;;;;;;5074013;28;20032;-51
2023/06/11 01:45:39;;;;;;;6.65;3.13;;;21.20;99.90;;;;;;5040511;28;20048;-57
2023/06/11 01:48:06;;;;;;;7.82;3.13;;;21.20;99.90;;;;;;5091016;28;20155;-51
2023/06/11 01:50:33;;;;;;;3.88;3.00;;;21.40;99.90;;;;;;5075861;28;20436;-53
2023/06/11 01:52:58;;;;;;;5.57;2.88;;;21.30;99.90;;;;;;5093981;28;20115;-57
2023/06/11 01:55:24;;;;;;;4.00;3.08;;;21.30;99.90;;;;;;5093887;28;20174;-55
2023/06/11 01:57:50;;;;;;;5.15;3.05;;;21.20;99.90;;;;;;5060321;28;20118;-53
2023/06/11 02:00:16;;;;;;;7.45;3.70;;;21.20;99.90;;;;;;5093962;28;20023;-55
2023/06/11 02:02:47;;;;;;;6.03;3.60;;;21.10;99.90;;;;;;5060257;28;20043;-51
2023/06/11 02:05:13;;;;;;;4.65;3.33;;;21.10;99.90;;;;;;5093650;28;20032;-57
2023/06/11 02:07:38;;;;;;;6.07;3.38;;;21.10;99.90;;;;;;5093717;28;20032;-56
2023/06/11 02:10:05;;;;;;;7.70;2.92;;;21.00;99.90;;;;;;5059830;28;20073;-51
2023/06/11 02:12:31;;;;;;;4.20;2.78;;;20.90;99.90;;;;;;5043311;28;20032;-57
2023/06/11 02:14:57;;;;;;;5.80;3.63;;;21.00;99.90;;;;;;5059946;28;20036;-53
2023/06/11 02:17:23;;;;;;;4.75;3.30;;;20.90;99.90;;;;;;5093485;28;20119;-53
2023/06/11 02:19:49;;;;;;;4.53;3.40;;;20.90;99.90;;;;;;5060121;28;20595;-56
2023/06/11 02:22:15;;;;;;;5.70;3.30;;;;;;;;;;5093249;28;20030;-54
2023/06/11 02:24:41;;;;;;;4.72;3.20;;;20.80;99.90;;;;;;5078857;28;20044;-52
2023/06/11 02:27:06;;;;;;;6.45;3.58;;;20.80;99.90;;;;;;5090321;28;20082;-55
2023/06/11 02:29:32;;;;;;;4.57;3.25;;;20.90;99.90;;;;;;5090039;28;20036;-55
2023/06/11 02:31:58;;;;;;;9.43;3.47;;;21.00;99.90;;;;;;5073350;28;20036;-55
2023/06/11 02:34:24;;;;;;;8.05;3.38;;;21.10;99.90;;;;;;5056544;28;20112;-54
2023/06/11 02:36:50;;;;;;;4.45;3.22;;;;;;;;;;5090211;28;20032;-55
2023/06/11 02:39:16;;;;;;;5.32;3.88;;;21.20;99.90;;;;;;5075237;28;20028;-51
2023/06/11 02:41:42;;;;;;;4.82;3.17;;;21.20;99.90;;;;;;5056507;28;20086;-54
2023/06/11 02:44:07;;;;;;;4.65;3.67;;;21.20;99.90;;;;;;5075026;28;20523;-54
2023/06/11 02:46:33;;;;;;;4.78;3.38;;;21.30;99.90;;;;;;5075097;28;20038;-55
2023/06/11 02:48:59;;;;;;;5.40;3.70;;;21.10;99.90;;;;;;5089905;28;20036;-53
2023/06/11 02:51:24;;;;;;;4.57;3.45;;;20.90;99.90;;;;;;5089615;28;20056;-54
2023/06/11 02:53:50;;;;;;;6.78;3.63;;;20.70;99.90;;;;;;5074452;28;20025;-53
2023/06/11 02:56:16;;;;;;;6.47;3.78;;;20.60;99.90;;;;;;5074653;28;20050;-54
2023/06/11 02:58:41;;;;;;;5.57;3.85;;;20.70;99.90;;;;;;5072808;28;20098;-51
2023/06/11 03:01:07;;;;;;;5.10;3.55;;;20.70;99.90;;;;;;5075026;28;20025;-55
2023/06/11 03:03:33;;;;;;;6.18;3.40;;;20.60;99.90;;;;;;5089220;28;20123;-55
2023/06/11 03:05:59;;;;;;;6.45;3.50;;;20.50;99.90;;;;;;5074794;28;20037;-50
2023/06/11 03:08:24;;;;;;;4.75;3.58;;;20.50;99.90;;;;;;5074360;28;20029;-53
2023/06/11 03:10:50;;;;;;;4.63;3.75;;;20.50;99.90;;;;;;5074661;28;20463;-51
2023/06/11 03:13:16;;;;;;;4.70;3.50;;;;;;;;;;5089364;28;20123;-49
2023/06/11 03:15:42;;;;;;;4.75;3.08;;;20.50;99.90;;;;;;5072747;28;20170;-53
2023/06/11 03:18:07;;;;;;;4.28;3.45;;;20.50;99.90;;;;;;5072428;28;20493;-55
2023/06/11 03:20:33;;;;;;;4.78;3.33;;;20.50;99.90;;;;;;5074247;28;20021;-51
2023/06/11 03:22:59;;;;;;;4.85;3.50;;;20.60;99.90;;;;;;5085090;28;20024;-54
2023/06/11 03:25:24;;;;;;;6.95;3.80;;;20.80;99.90;;;;;;5092400;28;20048;-57
2023/06/11 03:27:50;;;;;;;4.65;3.58;;;20.80;99.90;;;;;;5094432;28;20028;-54
2023/06/11 03:30:16;;;;;;;4.88;3.08;;;20.90;99.90;;;;;;5094486;28;20056;-51
2023/06/11 03:32:42;;;;;;;7.20;3.67;;;20.80;99.90;;;;;;5092174;28;20462;-55
2023/06/11 03:35:07;;;;;;;4.93;3.38;;;20.70;99.90;;;;;;5094428;28;20027;-54
2023/06/11 03:37:33;;;;;;;9.23;3.83;;;20.60;99.90;;;;;;5075092;28;20066;-55
2023/06/11 03:39:59;;;;;;;6.53;3.40;;;20.60;99.90;;;;;;5094497;28;20020;-51
2023/06/11 03:42:25;;;;;;;4.13;3.28;;;20.60;99.90;;;;;;5094200;28;20028;-56
2023/06/11 03:44:53;;;;;;;4.30;3.35;;;20.70;99.90;;;;;;5092213;28;20040;-53
2023/06/11 03:47:18;;;;;;;4.85;3.58;;;20.80;99.90;;;;;;5094010;28;20050;-55
2023/06/11 03:49:44;;;;;;;4.90;3.53;;;20.80;99.90;;;;;;5094068;28;20111;-56
2023/06/11 03:52:10;;;;;;;4.57;3.55;;;20.60;99.90;;;;;;5092076;28;20036;-56
2023/06/11 03:54:36;;;;;;;5.70;2.97;;;20.70;99.90;;;;;;5093920;28;20115;-52
2023/06/11 03:57:02;;;;;;;4.40;3.25;;;20.50;99.90;;;;;;5093968;28;20035;-51
2023/06/11 03:59:27;;;;;;;5.63;2.97;;;20.40;99.90;;;;;;5091713;28;20032;-53
2023/06/11 04:01:53;;;;;;;4.88;3.45;;;20.30;99.90;;;;;;5093804;28;20045;-52
2023/06/11 04:04:19;;;;;;;6.43;4.00;;;20.30;99.90;;;;;;5093930;28;20044;-52
2023/06/11 04:06:45;;;;;;;6.05;4.55;;;20.40;99.90;;;;;;5093279;28;20032;-52
2023/06/11 04:09:11;;;;;;;6.28;4.07;;;20.40;99.90;;;;;;5093950;28;20429;-51
2023/06/11 04:11:36;;;;;;;5.93;3.83;;;20.60;99.90;;;;;;5094080;28;20107;-55
2023/06/11 04:14:02;;;;;;;5.03;3.83;;;20.60;99.90;;;;;;5091964;28;20118;-53
2023/06/11 04:16:28;;;;;;;5.50;3.50;;;20.70;99.90;;;;;;5109368;28;20028;-50
2023/06/11 04:18:54;;;;;;;5.43;3.50;;;;;;;;;;5093444;28;20368;-49
2023/06/11 04:21:20;;;;;;;4.75;3.08;;;20.90;99.90;;;;;;5093538;28;20447;-54
2023/06/11 04:23:46;;;;;;;4.75;3.30;;;20.90;99.90;;;;;;5093200;28;20051;-55
2023/06/11 04:26:15;;;;;;;3.95;3.03;;;20.90;99.90;;;;;;5093421;28;20055;-56
2023/06/11 04:28:44;;;;;;;5.72;4.10;;;20.80;99.90;;;;;;5093760;28;20058;-54
2023/06/11 04:31:11;;;;;;;5.72;4.10;;;20.90;99.90;;;;;;5093628;28;20032;-56
2023/06/11 04:33:37;;;;;;;6.93;3.15;;;20.90;99.90;;;;;;5093073;28;20060;-54
2023/06/11 04:36:07;;;;;;;6.03;3.28;;;21.00;99.90;;;;;;5091202;28;20047;-54
2023/06/11 04:38:37;;;;;;;4.82;3.60;;;21.00;99.90;;;;;;5093315;28;20036;-55
2023/06/11 04:41:08;;;;;;;5.95;3.85;;;21.00;99.90;;;;;;5093463;28;20031;-53
2023/06/11 04:43:34;;;;;;;6.10;4.32;;;21.00;99.90;;;;;;5092998;28;20042;-52
2023/06/11 04:46:03;;;;;;;5.60;3.42;;;21.00;99.90;;;;;;5091503;28;20035;-56
2023/06/11 04:48:31;;;;;;;6.00;3.88;;;21.10;99.90;;;;;;5093117;28;20063;-49
2023/06/11 04:50:59;;;;;;;6.85;3.80;;;21.20;99.90;;;;;;5093197;28;20043;-54
2023/06/11 04:53:27;;;;;;;3.97;3.10;;;21.30;99.90;;;;;;5093510;28;20119;-58
2023/06/11 04:55:55;;;;;;;5.78;3.55;;;21.40;99.90;;;;;;5089957;28;20042;-53
2023/06/11 04:58:23;;;;;;;7.88;3.97;;;21.50;99.90;;;;;;5083917;28;20036;-51
2023/06/11 05:00:49;;;;;;;6.57;3.45;;;21.30;99.90;;;;;;5091268;28;20105;-54
2023/06/11 05:03:19;;;;;;;4.03;3.00;;;21.30;99.90;;;;;;5093137;28;20028;-54
2023/06/11 05:05:51;;;;;;;5.70;3.60;;;21.30;99.90;;;;;;5091810;28;20406;-58
2023/06/11 05:08:25;;;;;;;4.82;3.50;;;21.30;99.90;;;;;;5093084;28;20032;-52
2023/06/11 05:10:51;;;;;;;4.53;3.47;;;21.30;99.90;;;;;;5092787;28;20444;-49
2023/06/11 05:13:26;;;;;;;6.93;3.65;;;21.40;99.90;;;;;;5091214;28;20115;-51
2023/06/11 05:15:52;;;;;;;4.78;3.42;;;21.30;99.90;;;;;;5093040;28;20024;-51
2023/06/11 05:18:18;;;;;;;5.78;3.47;;;21.50;99.90;;;;;;5096102;28;20032;-52
2023/06/11 05:20:45;;;;;;;5.10;3.35;;;21.50;99.90;;;;;;5097028;28;20063;-54
2023/06/11 05:23:10;;;;;;;5.45;3.45;;;21.40;99.90;;;;;;5094856;28;20040;-56
2023/06/11 05:25:46;;;;;;;4.80;3.30;;;21.50;99.90;;;;;;5097213;28;20459;-51
2023/06/11 05:28:13;;;;;;;4.35;3.20;;;21.50;99.90;;;;;;5097082;28;20528;-54
2023/06/11 05:30:39;;;;;;;4.75;3.22;;;21.60;99.90;;;;;;5096654;28;20032;-57
2023/06/11 05:33:06;;;;;;;5.22;3.85;;;21.60;99.90;;;;;;5094461;28;20047;-51
2023/06/11 05:35:32;;;;;;;5.53;3.45;;;21.60;99.90;;;;;;5096776;28;20115;-51
2023/06/11 05:37:58;;;;;;;5.60;3.38;;;21.70;99.90;;;;;;5094294;28;20119;-57
2023/06/11 05:40:24;;;;;;;5.18;3.47;;;21.90;99.90;;;;;;5096322;28;20032;-50
2023/06/11 05:42:50;;;;;;;5.30;3.75;;;21.70;99.90;;;;;;5096535;28;20034;-51
2023/06/11 05:45:16;;;;;;;4.95;3.35;;;21.40;99.90;;;;;;5096344;28;20036;-53
2023/06/11 05:47:41;;;;;;;5.47;3.58;;;21.50;99.90;;;;;;5083916;28;20495;-51
2023/06/11 05:50:07;;;;;;;5.40;3.75;;;21.40;99.90;;;;;;5090750;28;20447;-54
2023/06/11 05:52:33;;;;;;;4.20;3.10;;;21.50;99.90;;;;;;5100025;28;20028;-53
2023/06/11 05:54:59;;;;;;;4.55;3.78;;;21.40;99.90;;;;;;5077348;28;20494;-50
2023/06/11 05:57:25;;;;;;;4.70;3.03;;;21.40;99.90;;;;;;5094099;28;20047;-55
2023/06/11 05:59:52;;;;;;;4.90;3.20;;;21.40;99.90;;;;;;5044093;28;20044;-52
2023/06/11 06:02:18;;;;;;;4.90;3.25;;;21.50;99.90;;;;;;5096009;28;20024;-54
2023/06/11 06:04:47;;;;;;;4.28;3.00;;;21.40;99.90;;;;;;5077268;28;20056;-52
2023/06/11 06:07:12;;;;;;;4.57;3.30;;;21.50;99.90;;;;;;5095819;28;20039;-51
2023/06/11 06:09:39;;;;;;;5.40;3.65;;;21.60;99.90;;;;;;5076982;28;20040;-53
2023/06/11 06:12:06;;;;;;;6.75;3.22;;;21.50;99.90;;;;;;5094464;28;20024;-54
2023/06/11 06:14:32;;;;;;;8.95;3.70;;;21.50;99.90;;;;;;5077218;28;20522;-53
2023/06/11 06:16:58;;;;;;;8.32;3.38;;;21.40;99.90;;;;;;5094028;28;20036;-52
2023/06/11 06:19:23;;;;;;;4.93;3.42;;;21.50;99.90;;;;;;5095870;28;20032;-55
2023/06/11 06:21:49;;;;;;;5.13;3.38;;;21.30;99.90;;;;;;5095814;28;20036;-48
2023/06/11 06:24:15;;;;;;;5.88;3.00;;;21.30;99.90;;;;;;5095507;28;20471;-59
2023/06/11 06:26:41;;;;;;;5.22;3.40;;;21.40;99.90;;;;;;5095474;28;20517;-55
2023/06/11 06:29:08;;;;;;;4.45;3.28;;;21.30;99.90;;;;;;5095018;28;20056;-52
2023/06/11 06:31:36;;;;;;;8.02;2.90;;;21.30;99.90;;;;;;5093718;28;20491;-53
2023/06/11 06:34:02;;;;;;;4.60;2.97;;;21.30;99.90;;;;;;5095641;28;20117;-49
2023/06/11 06:36:28;;;;;;;5.03;3.58;;;21.30;99.90;;;;;;5095396;28;20107;-51
2023/06/11 06:38:54;;;;;;;3.67;2.70;;;21.40;99.90;;;;;;5110941;28;20127;-54
2023/06/11 06:41:20;;;;;;;3.72;3.05;;;21.60;99.90;;;;;;5095833;28;20028;-54
2023/06/11 06:43:46;;;;;;;4.63;2.97;;;21.60;99.90;;;;;;5095133;28;20463;-54
2023/06/11 06:46:12;;;;;;;4.88;3.33;;;21.40;99.90;;;;;;5095750;28;20071;-55
2023/06/11 07:01:56;;;;;;;3.55;2.30;;;21.30;99.90;;;;;;5094460;27;20402;-52
2023/06/11 07:04:21;;;;;;;4.90;3.03;;;21.80;99.90;;;;;;5090193;28;20035;-55
2023/06/11 07:06:47;;;;;;;3.92;2.75;;;21.70;99.90;;;;;;5088701;28;20501;-53
2023/06/11 07:09:13;;;;;;;3.35;2.80;;;21.60;99.90;;;;;;5054490;28;20037;-57
2023/06/11 07:11:38;;;;;;;3.03;2.58;;;21.50;99.90;;;;;;5090300;28;20383;-52
2023/06/11 07:14:04;;;;;;;3.63;2.70;;;21.50;99.90;;;;;;5080674;28;20029;-57
2023/06/11 07:16:30;;;;;;;6.22;3.38;;;21.70;99.90;;;;;;5076249;28;20032;-59
2023/06/11 07:18:56;;;;;;;3.47;2.40;;;21.70;99.90;;;;;;5060678;28;20040;-54
2023/06/11 07:21:23;;;;;;;2.80;2.30;;;21.70;99.90;;;;;;5080823;28;20024;-55
2023/06/11 07:23:49;;;;;;;3.65;2.22;;;21.60;99.90;;;;;;5069490;28;20052;-56
2023/06/11 07:26:15;;;;;;;3.47;2.22;;;21.80;99.90;;;;;;5079561;28;20028;-53
2023/06/11 07:28:41;;;;;;;3.70;2.40;;;21.70;99.90;;;;;;5071558;28;20039;-52
2023/06/11 07:31:08;;;;;;;3.20;2.38;;;21.70;99.90;;;;;;5069434;28;20128;-56
2023/06/11 07:33:33;;;;;;;3.15;2.33;;;21.70;99.90;;;;;;5069329;28;20059;-57
2023/06/11 07:35:59;;;;;;;3.72;2.42;;;21.80;99.90;;;;;;5050908;28;20036;-55
2023/06/11 07:38:25;;;;;;;2.85;2.28;;;21.90;99.90;;;;;;5069431;28;20680;-60
2023/06/11 07:40:52;;;;;;;2.85;2.33;;;21.80;99.90;;;;;;5067485;28;20060;-57
2023/06/11 07:43:17;;;;;;;3.10;2.78;;;22.00;99.90;;;;;;5069691;28;20440;-55
2023/06/11 07:45:46;;;;;;;3.30;2.90;;;22.30;99.90;;;;;;5053560;28;20115;-59
2023/06/11 07:48:12;;;;;;;3.97;2.90;;;22.30;99.90;;;;;;5065963;28;20472;-55
2023/06/11 07:50:37;;;;;;;3.92;2.95;;;22.40;99.90;;;;;;5088551;28;20119;-56
2023/06/11 07:53:03;;;;;;;3.95;2.83;;;22.60;99.90;;;;;;5088893;28;20483;-54
2023/06/11 07:55:30;;;;;;;3.65;2.78;;;22.70;99.90;;;;;;5088297;28;20430;-49
2023/06/11 07:57:56;;;;;;;4.80;3.50;;;22.60;99.90;;;;;;5088661;28;20456;-57
2023/06/11 08:00:22;;;;;;;5.30;3.15;;;22.70;99.90;;;;;;5087944;28;20123;-60
2023/06/11 08:02:48;;;;;;;4.63;3.40;;;22.80;99.90;;;;;;5075540;28;20123;-55
2023/06/11 08:05:19;;;;;;;4.75;3.35;;;22.90;99.90;;;;;;5074617;28;20068;-60
2023/06/11 08:07:45;;;;;;;;;;;;;;;;;;5071957;28;20040;-59
2023/06/11 08:10:11;;;;;;;4.70;3.58;;;23.30;99.90;;;;;;5074467;28;19920;-61
2023/06/11 08:12:37;;;;;;;4.90;3.80;;;23.40;99.90;;;;;;5074869;28;20039;-59
2023/06/11 08:15:03;;;;;;;4.95;3.58;;;23.50;99.90;;;;;;5046345;28;20096;-57
2023/06/11 08:17:29;;;;;;;6.03;4.28;;;23.60;99.90;;;;;;5030298;28;20492;-54
2023/06/11 08:19:55;;;;;;;6.15;4.53;;;;;;;;;;5049303;28;20179;-58
2023/06/11 08:22:21;;;;;;;5.03;3.95;;;24.50;99.90;;;;;;5019090;28;20048;-56
2023/06/11 08:24:46;;;;;;;5.20;3.90;;;23.90;99.90;;;;;;5035830;28;20041;-57
2023/06/11 08:27:13;;;;;;;6.18;4.38;;;;;;;;;;5046893;28;20033;-56
2023/06/11 08:29:39;;;;;;;7.00;4.68;;;;;;;;;;5049043;28;20054;-53
2023/06/11 08:32:05;;;;;;;6.32;3.90;;;24.60;99.90;;;;;;5052455;28;20033;-51
2023/06/11 08:34:31;;;;;;;5.32;4.20;;;24.80;99.90;;;;;;5023215;28;20046;-54
2023/06/11 08:36:57;;;;;;;4.88;3.90;;;24.80;99.90;;;;;;5046208;28;20040;-59
2023/06/11 08:39:23;;;;;;;5.68;4.28;;;25.10;99.90;;;;;;5045991;28;20057;-51
2023/06/11 08:41:49;;;;;;;5.05;3.88;;;25.20;99.90;;;;;;5048018;28;20098;-52
2023/06/11 08:44:15;;;;;;;5.32;4.40;;;;;;;;;;5052519;28;20029;-50
2023/06/11 08:46:44;;;;;;;5.10;4.35;;;25.80;99.90;;;;;;5046520;28;20569;-59
2023/06/11 08:49:19;;;;;;;5.13;3.83;;;26.00;99.90;;;;;;5069352;28;20063;-52
2023/06/11 08:51:45;;;;;;;7.18;4.43;;;26.30;99.90;;;;;;5073377;28;20067;-54
2023/06/11 08:54:12;;;;;;;5.45;3.95;;;;;;;;;;5072684;28;20457;-55
2023/06/11 08:56:38;;;;;;;5.22;4.28;;;26.30;99.90;;;;;;5054913;28;20091;-55
2023/06/11 08:59:04;;;;;;;4.97;3.95;;;;;;;;;;5073855;28;20402;-56
2023/06/11 09:01:31;;;;;;;6.97;4.57;;;;;;;;;;5073659;28;20377;-49
2023/06/11 09:03:57;;;;;;;5.22;4.53;;;;;;;;;;5073875;28;20502;-51
2023/06/11 09:06:24;;;;;;;5.68;4.43;;;;;;;;;;5073728;28;20037;-61
2023/06/11 09:09:01;;;;;;;5.68;4.18;;;;;;;;;;5073880;28;20028;-55
2023/06/11 09:11:37;;;;;;;5.00;4.40;;;27.70;99.90;;;;;;5070815;28;20132;-54
2023/06/11 09:14:03;;;;;;;4.63;3.72;;;27.40;99.90;;;;;;5070430;28;20032;-57
2023/06/11 09:16:38;;;;;;;4.68;3.58;;;27.30;99.90;;;;;;5068225;28;20036;-48
2023/06/11 09:19:04;;;;;;;4.97;3.75;;;27.90;99.90;;;;;;5071951;28;20036;-52
2023/06/11 09:21:29;;;;;;;4.38;3.88;;;27.90;99.90;;;;;;5073367;28;20506;-55
2023/06/11 09:23:55;;;;;;;4.97;3.80;;;28.00;99.90;;;;;;5073002;28;20039;-57
2023/06/11 09:26:21;;;;;;;4.85;3.47;;;27.90;99.90;;;;;;5074000;28;20036;-49
2023/06/11 09:28:46;;;;;;;4.22;2.90;;;27.60;99.90;;;;;;5049398;28;20044;-55
2023/06/11 09:31:13;;;;;;;4.75;3.20;;;;;;;;;;5073807;28;20075;-50
2023/06/11 09:33:39;;;;;;;3.80;2.95;;;;;;;;;;5070164;28;20032;-52
2023/06/11 09:36:05;;;;;;;4.97;3.50;;;;;;;;;;5069314;28;20108;-52
2023/06/11 09:38:34;;;;;;;4.38;3.58;;;;;;;;;;5052996;28;20041;-47
2023/06/11 09:41:00;;;;;;;3.90;3.20;;;;;;;;;;5073670;28;20031;-52
2023/06/11 09:43:27;;;;;;;6.63;3.40;;;;;;;;;;5072620;28;20091;-53
2023/06/11 09:45:54;;;;;;;4.78;3.53;;;26.00;99.90;;;;;;5066624;28;20037;-53
2023/06/11 09:48:21;;;;;;;4.68;3.00;;;25.60;99.90;;;;;;5073043;28;20031;-54
2023/06/11 09:50:51;;;;;;;4.53;3.60;;;25.40;99.90;;;;;;5072181;28;20075;-54
2023/06/11 09:53:21;;;;;;;4.30;3.50;;;25.50;99.90;;;;;;5067517;28;20034;-52
2023/06/11 09:55:51;;;;;;;4.65;2.92;;;25.50;99.90;;;;;;5072569;28;20036;-54
2023/06/11 09:58:21;;;;;;;6.13;4.25;;;25.60;99.90;;;;;;5070958;28;20028;-59
2023/06/11 10:00:52;;;;;;;4.35;3.28;;;25.70;99.90;;;;;;5072114;28;20059;-52
2023/06/11 10:03:19;;;;;;;5.27;3.60;;;25.80;99.90;;;;;;5065156;28;20029;-51
2023/06/11 10:05:45;;;;;;;3.90;3.17;;;25.80;99.90;;;;;;5067785;28;20032;-54
2023/06/11 10:08:13;;;;;;;13.13;6.93;;;25.80;99.90;;;;;;5071523;28;20070;-49
2023/06/11 10:10:42;;;;;;;4.63;3.00;;;25.60;99.90;;;;;;5071224;28;20403;-58
2023/06/11 10:13:08;;;;;;;4.43;3.20;;;25.60;99.90;;;;;;5071290;28;20078;-57
2023/06/11 10:15:36;;;;;;;4.15;3.22;;;25.80;99.90;;;;;;5069844;28;20024;-52
2023/06/11 10:18:11;;;;;;;4.13;3.38;;;24.90;99.90;;;;;;5070321;28;20029;-52
2023/06/11 10:20:38;;;;;;;4.22;3.15;;;24.40;99.90;;;;;;5065727;28;20042;-55
2023/06/11 10:23:11;;;;;;;4.80;3.20;;;23.90;99.90;;;;;;5070963;28;20040;-52
2023/06/11 10:25:39;;;;;;;4.20;2.83;;;23.60;99.90;;;;;;5071155;28;20037;-52
2023/06/11 10:28:07;;;;;;;3.00;2.22;;;23.00;99.90;;;;;;5070589;28;20422;-57
2023/06/11 10:30:33;;;;;;;3.50;2.45;;;22.70;99.90;;;;;;5071263;28;20476;-60
2023/06/11 10:45:11;;;;;;;3.17;2.08;;;21.50;99.90;;;;;;5120240;27;20402;-52
2023/06/11 10:51:00;;;;;;;2.53;1.35;;;21.40;99.90;;;;;;5099231;28;20105;-61
2023/06/11 10:53:36;;;;;;;3.45;2.53;;;21.10;99.90;;;;;;5097391;28;20056;-52
2023/06/11 10:59:23;;;;;;;3.08;2.08;;;21.10;99.90;;;;;;5102743;28;20027;-58
2023/06/11 11:12:51;;;;;;;3.00;2.15;;;22.50;99.90;;;;;;5103659;28;20062;-52
2023/06/11 11:15:17;;;;;;;2.93;2.00;;;22.80;99.90;;;;;;5094169;28;20510;-55
2023/06/11 11:18:27;;;;;;;2.90;2.10;;;22.90;99.90;;;;;;5070361;28;20293;-62
2023/06/11 11:20:54;;;;;;;3.05;2.28;;;22.70;99.90;;;;;;5081631;28;20097;-56
2023/06/11 11:23:48;;;;;;;2.70;2.08;;;22.90;99.90;;;;;;5083588;28;20032;-54
2023/06/11 11:26:16;;;;;;;7.53;2.45;;;23.00;99.90;;;;;;5056481;28;20040;-53
2023/06/11 11:28:42;;;;;;;3.55;2.53;;;23.00;99.90;;;;;;5046387;28;20488;-57
2023/06/11 11:47:35;;;;;;;2.03;1.33;;;22.00;99.90;;;;;;4984147;28;21629;-56
2023/06/11 11:50:01;;;;;;;2.00;1.30;;;21.40;99.90;;;;;;4975681;28;20033;-63
2023/06/11 11:52:27;;;;;;;2.67;1.23;;;21.70;99.90;;;;;;4987732;28;20517;-56
2023/06/11 11:54:56;;;;;;;1.88;1.17;;;22.00;99.90;;;;;;4978297;28;20026;-53
2023/06/11 11:57:25;;;;;;;5.90;1.60;;;21.90;99.90;;;;;;4989868;28;20829;-60
2023/06/11 11:59:53;;;;;;;3.00;1.45;;;21.70;99.90;;;;;;5013022;28;20045;-65
2023/06/11 12:02:26;;;;;;;3.05;1.27;;;21.70;99.90;;;;;;4999710;28;20045;-56
2023/06/11 12:04:52;;;;;;;1.85;1.33;;;21.50;99.90;;;;;;4999500;28;20052;-54
2023/06/11 12:07:18;;;;;;;1.45;1.25;;;21.50;99.90;;;;;;4968546;28;20045;-55
2023/06/11 12:09:43;;;;;;;1.73;1.30;;;21.60;99.90;;;;;;5007514;28;20033;-53
2023/06/11 12:12:10;;;;;;;2.90;2.03;;;21.70;99.90;;;;;;4930866;28;20042;-64
2023/06/11 12:14:36;;;;;;;5.70;1.20;;;21.80;99.90;;;;;;4976128;28;20115;-53
2023/06/11 12:17:03;;;;;;;1.63;1.40;;;21.70;99.90;;;;;;4970889;28;20034;-56
2023/06/11 12:19:31;;;;;;;2.58;1.25;;;21.70;99.90;;;;;;4916248;28;20061;-53
2023/06/11 12:21:56;;;;;;;2.10;1.10;;;21.60;99.90;;;;;;5004707;28;20033;-51
2023/06/11 12:24:23;;;;;;;2.30;1.15;;;21.70;99.90;;;;;;4949759;28;20703;-59
2023/06/11 12:26:50;;;;;;;2.28;1.42;;;21.80;99.90;;;;;;5007998;28;20034;-58
2023/06/11 12:29:16;;;;;;;2.00;1.20;;;21.90;99.90;;;;;;4973073;28;20034;-54
2023/06/11 12:31:42;;;;;;;2.03;1.02;;;22.10;99.90;;;;;;4970386;28;20051;-58
2023/06/11 12:34:14;;;;;;;3.42;1.02;;;22.10;99.90;;;;;;4979844;28;20068;-58
2023/06/11 12:36:41;;;;;;;0.98;0.90;;;22.10;99.90;;;;;;5004456;28;20060;-52
2023/06/11 12:39:07;;;;;;;4.22;1.00;;;22.00;99.90;;;;;;4987968;28;20136;-51
2023/06/11 12:41:33;;;;;;;1.83;0.90;;;21.80;99.90;;;;;;4978722;28;20720;-60
2023/06/11 12:43:59;;;;;;;0.88;0.82;;;21.90;99.90;;;;;;4972559;28;20031;-62
2023/06/11 12:46:28;;;;;;;0.75;0.70;;;21.70;99.90;;;;;;4985412;28;20558;-54
2023/06/11 12:48:54;;;;;;;0.77;0.65;;;21.60;99.90;;;;;;4970455;28;20041;-53
2023/06/11 12:51:20;;;;;;;0.95;0.75;;;21.50;99.90;;;;;;4982165;28;21381;-56
2023/06/11 12:53:46;;;;;;;0.75;0.57;;;21.50;99.90;;;;;;4991925;28;20516;-60
2023/06/11 12:56:12;;;;;;;0.80;0.47;;;21.30;99.90;;;;;;4989483;28;20129;-61
2023/06/11 12:58:39;;;;;;;1.05;0.70;;;21.40;99.90;;;;;;4973281;28;20046;-60
2023/06/11 13:01:06;;;;;;;0.68;0.65;;;21.30;99.90;;;;;;4960636;28;20105;-59
2023/06/11 13:03:32;;;;;;;1.00;0.73;;;21.30;99.90;;;;;;4983704;28;20030;-51
2023/06/11 13:05:58;;;;;;;1.00;0.88;;;21.30;99.90;;;;;;4955832;28;20030;-53
2023/06/11 13:08:24;;;;;;;0.52;0.50;;;21.40;99.90;;;;;;4960913;28;21838;-51
2023/06/11 13:10:52;;;;;;;4.53;0.70;;;21.40;99.90;;;;;;4954770;28;20038;-53
2023/06/11 13:13:21;;;;;;;0.40;0.40;;;21.60;99.90;;;;;;4975715;28;20049;-55
2023/06/11 13:15:47;;;;;;;0.50;0.50;;;21.80;99.90;;;;;;4986871;28;20095;-53
2023/06/11 13:18:13;;;;;;;2.28;1.23;;;22.20;99.90;;;;;;4982288;28;20064;-54
2023/06/11 13:20:40;;;;;;;2.38;1.67;;;22.40;99.90;;;;;;4956036;28;20129;-54
2023/06/11 13:23:06;;;;;;;1.52;1.13;;;22.50;99.90;;;;;;4973398;28;20037;-59
2023/06/11 13:25:32;;;;;;;0.65;0.65;;;22.60;99.90;;;;;;4966345;28;20058;-54
2023/06/11 13:27:57;;;;;;;0.73;0.73;;;22.60;99.90;;;;;;4959980;28;20040;-54
2023/06/11 13:30:23;;;;;;;3.80;0.82;;;22.60;99.90;;;;;;4962612;28;20034;-50
2023/06/11 13:32:49;;;;;;;0.95;0.60;;;22.60;99.90;;;;;;4962286;28;21334;-55
2023/06/11 13:35:15;;;;;;;1.42;1.00;;;22.60;99.90;;;;;;4958674;28;20132;-54
2023/06/11 13:37:40;;;;;;;1.25;0.80;;;22.60;99.90;;;;;;4965381;28;20069;-54
2023/06/11 13:40:07;;;;;;;0.98;0.82;;;22.80;99.90;;;;;;4964652;28;20610;-54
2023/06/11 13:42:33;;;;;;;2.25;1.00;;;23.00;99.90;;;;;;4972547;28;20059;-51
2023/06/11 13:45:01;;;;;;;1.70;0.88;;;23.20;99.90;;;;;;4962156;28;20024;-56
2023/06/11 13:47:28;;;;;;;1.80;1.00;;;23.40;99.90;;;;;;4929991;28;20188;-50
2023/06/11 13:49:53;;;;;;;1.00;0.90;;;23.50;99.90;;;;;;4966678;28;20184;-54
2023/06/11 13:52:23;;;;;;;1.38;0.90;;;23.60;99.90;;;;;;4982659;28;20488;-53
2023/06/11 13:54:49;;;;;;;1.55;1.02;;;23.80;99.90;;;;;;4967493;28;20069;-57